Terminal Aerodrome Forecast
Issued by NWS Binghamton, NY

Home | Current Version | Previous Version | Text Only | Print | Product List | Glossary On
Versions: 1 2 3 4 5 6 7 8 9 10 11 12 13 14 15 16 17
000
FTUS41 KBGM 112320
TAFBGM
TAF
KBGM 112320Z 1200/1224 15005KT P6SM OVC035
      TEMPO 1201/1204 OVC025
     FM120400 16008KT 4SM -SN OVC025
     FM120700 16010G20KT 4SM -SN OVC015
      TEMPO 1211/1215 2SM -SN OVC009
     FM121500 20010G20KT 4SM -SN BLSN OVC015=

USA.gov is the U.S. government's official web portal to all federal, state and local government web resources and services.